sensor_id;sensor_type;location;lat;lon;timestamp;P1;durP1;ratioP1;P2;durP2;ratioP2
80334;SDS011;69653;52.674;13.574;2023-05-07T00:00:33;12.82;;;8.77;;
80334;SDS011;69653;52.674;13.574;2023-05-07T00:02:59;13.80;;;9.50;;
80334;SDS011;69653;52.674;13.574;2023-05-07T00:05:24;15.93;;;9.93;;
80334;SDS011;69653;52.674;13.574;2023-05-07T00:07:50;13.20;;;8.82;;
80334;SDS011;69653;52.674;13.574;2023-05-07T00:10:17;14.65;;;8.45;;
80334;SDS011;69653;52.674;13.574;2023-05-07T00:12:43;13.70;;;9.07;;
80334;SDS011;69653;52.674;13.574;2023-05-07T00:15:08;13.93;;;9.00;;
80334;SDS011;69653;52.674;13.574;2023-05-07T00:17:34;14.52;;;8.93;;
80334;SDS011;69653;52.674;13.574;2023-05-07T00:19:59;13.30;;;8.73;;
80334;SDS011;69653;52.674;13.574;2023-05-07T00:22:24;13.00;;;9.30;;
80334;SDS011;69653;52.674;13.574;2023-05-07T00:24:50;15.80;;;9.87;;
80334;SDS011;69653;52.674;13.574;2023-05-07T00:27:15;14.20;;;8.73;;
80334;SDS011;69653;52.674;13.574;2023-05-07T00:29:41;15.23;;;8.73;;
80334;SDS011;69653;52.674;13.574;2023-05-07T00:32:06;14.17;;;9.13;;
80334;SDS011;69653;52.674;13.574;2023-05-07T00:34:31;12.23;;;8.67;;
80334;SDS011;69653;52.674;13.574;2023-05-07T00:36:57;13.87;;;8.40;;
80334;SDS011;69653;52.674;13.574;2023-05-07T00:39:22;14.50;;;9.30;;
80334;SDS011;69653;52.674;13.574;2023-05-07T00:41:47;11.93;;;8.83;;
80334;SDS011;69653;52.674;13.574;2023-05-07T00:44:13;13.07;;;8.83;;
80334;SDS011;69653;52.674;13.574;2023-05-07T00:46:39;13.73;;;9.00;;
80334;SDS011;69653;52.674;13.574;2023-05-07T00:49:05;15.35;;;9.15;;
80334;SDS011;69653;52.674;13.574;2023-05-07T00:51:30;13.05;;;9.02;;
80334;SDS011;69653;52.674;13.574;2023-05-07T00:53:56;15.30;;;9.37;;
80334;SDS011;69653;52.674;13.574;2023-05-07T00:56:21;14.50;;;8.97;;
80334;SDS011;69653;52.674;13.574;2023-05-07T00:58:47;13.00;;;8.98;;
80334;SDS011;69653;52.674;13.574;2023-05-07T01:01:13;14.38;;;9.95;;
80334;SDS011;69653;52.674;13.574;2023-05-07T01:03:40;13.77;;;9.90;;
80334;SDS011;69653;52.674;13.574;2023-05-07T01:06:06;13.53;;;9.03;;
80334;SDS011;69653;52.674;13.574;2023-05-07T01:08:32;13.80;;;9.55;;
80334;SDS011;69653;52.674;13.574;2023-05-07T01:11:00;13.50;;;8.68;;
80334;SDS011;69653;52.674;13.574;2023-05-07T01:13:25;14.80;;;9.88;;
80334;SDS011;69653;52.674;13.574;2023-05-07T01:15:52;12.80;;;9.10;;
80334;SDS011;69653;52.674;13.574;2023-05-07T01:18:17;13.60;;;8.60;;
80334;SDS011;69653;52.674;13.574;2023-05-07T01:20:42;13.27;;;8.85;;
80334;SDS011;69653;52.674;13.574;2023-05-07T01:23:08;15.15;;;9.10;;
80334;SDS011;69653;52.674;13.574;2023-05-07T01:25:36;13.70;;;8.05;;
80334;SDS011;69653;52.674;13.574;2023-05-07T01:28:01;14.63;;;9.25;;
80334;SDS011;69653;52.674;13.574;2023-05-07T01:30:27;12.93;;;8.48;;
80334;SDS011;69653;52.674;13.574;2023-05-07T01:33:08;15.32;;;9.02;;
80334;SDS011;69653;52.674;13.574;2023-05-07T01:35:37;13.90;;;8.48;;
80334;SDS011;69653;52.674;13.574;2023-05-07T01:38:05;12.43;;;8.02;;
80334;SDS011;69653;52.674;13.574;2023-05-07T01:40:33;14.82;;;8.45;;
80334;SDS011;69653;52.674;13.574;2023-05-07T01:42:59;13.88;;;9.35;;
80334;SDS011;69653;52.674;13.574;2023-05-07T01:45:26;12.02;;;8.60;;
80334;SDS011;69653;52.674;13.574;2023-05-07T01:47:52;11.18;;;7.45;;
80334;SDS011;69653;52.674;13.574;2023-05-07T01:50:20;12.68;;;8.05;;
80334;SDS011;69653;52.674;13.574;2023-05-07T01:52:46;12.70;;;7.85;;
80334;SDS011;69653;52.674;13.574;2023-05-07T01:55:12;12.45;;;8.15;;
80334;SDS011;69653;52.674;13.574;2023-05-07T01:57:37;11.67;;;7.90;;
80334;SDS011;69653;52.674;13.574;2023-05-07T02:00:03;11.30;;;7.97;;
80334;SDS011;69653;52.674;13.574;2023-05-07T02:02:30;11.95;;;8.07;;
80334;SDS011;69653;52.674;13.574;2023-05-07T02:04:55;11.87;;;7.67;;
80334;SDS011;69653;52.674;13.574;2023-05-07T02:07:20;12.53;;;7.33;;
80334;SDS011;69653;52.674;13.574;2023-05-07T02:09:46;12.87;;;7.17;;
80334;SDS011;69653;52.674;13.574;2023-05-07T02:12:11;10.63;;;7.03;;
80334;SDS011;69653;52.674;13.574;2023-05-07T02:14:36;11.90;;;7.83;;
80334;SDS011;69653;52.674;13.574;2023-05-07T02:17:01;12.20;;;7.13;;
80334;SDS011;69653;52.674;13.574;2023-05-07T02:19:27;12.03;;;7.37;;
80334;SDS011;69653;52.674;13.574;2023-05-07T02:21:52;12.00;;;7.80;;
80334;SDS011;69653;52.674;13.574;2023-05-07T02:24:18;12.02;;;7.65;;
80334;SDS011;69653;52.674;13.574;2023-05-07T02:26:43;10.47;;;6.83;;
80334;SDS011;69653;52.674;13.574;2023-05-07T02:29:08;12.17;;;7.17;;
80334;SDS011;69653;52.674;13.574;2023-05-07T02:31:33;12.80;;;7.93;;
80334;SDS011;69653;52.674;13.574;2023-05-07T02:33:59;11.38;;;6.20;;
80334;SDS011;69653;52.674;13.574;2023-05-07T02:36:25;10.20;;;7.00;;
80334;SDS011;69653;52.674;13.574;2023-05-07T02:38:51;11.77;;;6.47;;
80334;SDS011;69653;52.674;13.574;2023-05-07T02:41:17;11.32;;;6.85;;
80334;SDS011;69653;52.674;13.574;2023-05-07T02:43:42;10.10;;;6.77;;
80334;SDS011;69653;52.674;13.574;2023-05-07T02:46:08;10.00;;;6.47;;
80334;SDS011;69653;52.674;13.574;2023-05-07T02:48:33;10.73;;;6.47;;
80334;SDS011;69653;52.674;13.574;2023-05-07T02:50:59;10.15;;;6.38;;
80334;SDS011;69653;52.674;13.574;2023-05-07T02:53:25;10.68;;;6.78;;
80334;SDS011;69653;52.674;13.574;2023-05-07T02:55:58;10.80;;;6.25;;
80334;SDS011;69653;52.674;13.574;2023-05-07T02:58:24;10.15;;;6.05;;
80334;SDS011;69653;52.674;13.574;2023-05-07T03:00:50;11.23;;;6.80;;
80334;SDS011;69653;52.674;13.574;2023-05-07T03:03:15;11.13;;;6.67;;
80334;SDS011;69653;52.674;13.574;2023-05-07T03:05:40;11.17;;;6.10;;
80334;SDS011;69653;52.674;13.574;2023-05-07T03:08:06;13.35;;;7.57;;
80334;SDS011;69653;52.674;13.574;2023-05-07T03:10:32;10.20;;;6.88;;
80334;SDS011;69653;52.674;13.574;2023-05-07T03:12:57;12.07;;;7.10;;
80334;SDS011;69653;52.674;13.574;2023-05-07T03:15:23;11.70;;;6.50;;
80334;SDS011;69653;52.674;13.574;2023-05-07T03:17:48;12.60;;;6.97;;
80334;SDS011;69653;52.674;13.574;2023-05-07T03:20:13;9.95;;;6.07;;
80334;SDS011;69653;52.674;13.574;2023-05-07T03:22:39;9.20;;;6.22;;
80334;SDS011;69653;52.674;13.574;2023-05-07T03:25:05;10.77;;;6.35;;
80334;SDS011;69653;52.674;13.574;2023-05-07T03:27:31;8.82;;;5.75;;
80334;SDS011;69653;52.674;13.574;2023-05-07T03:29:56;10.07;;;6.30;;
80334;SDS011;69653;52.674;13.574;2023-05-07T03:32:21;9.63;;;6.23;;
80334;SDS011;69653;52.674;13.574;2023-05-07T03:34:47;9.10;;;5.67;;
80334;SDS011;69653;52.674;13.574;2023-05-07T03:37:12;9.40;;;5.57;;
80334;SDS011;69653;52.674;13.574;2023-05-07T03:39:37;9.70;;;6.00;;
80334;SDS011;69653;52.674;13.574;2023-05-07T03:42:02;10.83;;;6.30;;
80334;SDS011;69653;52.674;13.574;2023-05-07T03:44:28;11.25;;;6.50;;
80334;SDS011;69653;52.674;13.574;2023-05-07T03:46:53;9.03;;;6.07;;
80334;SDS011;69653;52.674;13.574;2023-05-07T03:49:19;9.00;;;5.77;;
80334;SDS011;69653;52.674;13.574;2023-05-07T03:51:44;9.97;;;6.50;;
80334;SDS011;69653;52.674;13.574;2023-05-07T03:54:10;11.32;;;6.25;;
80334;SDS011;69653;52.674;13.574;2023-05-07T03:56:35;12.00;;;7.20;;
80334;SDS011;69653;52.674;13.574;2023-05-07T03:59:00;10.10;;;6.53;;
80334;SDS011;69653;52.674;13.574;2023-05-07T04:01:26;10.13;;;6.72;;
80334;SDS011;69653;52.674;13.574;2023-05-07T04:03:51;9.73;;;6.30;;
80334;SDS011;69653;52.674;13.574;2023-05-07T04:06:17;10.90;;;6.90;;
80334;SDS011;69653;52.674;13.574;2023-05-07T04:08:42;11.80;;;7.27;;
80334;SDS011;69653;52.674;13.574;2023-05-07T04:11:07;13.88;;;6.55;;
80334;SDS011;69653;52.674;13.574;2023-05-07T04:13:33;11.20;;;6.80;;
80334;SDS011;69653;52.674;13.574;2023-05-07T04:15:58;12.20;;;7.00;;
80334;SDS011;69653;52.674;13.574;2023-05-07T04:18:23;11.60;;;6.90;;
80334;SDS011;69653;52.674;13.574;2023-05-07T04:20:49;11.27;;;6.60;;
80334;SDS011;69653;52.674;13.574;2023-05-07T04:23:15;11.63;;;7.03;;
80334;SDS011;69653;52.674;13.574;2023-05-07T04:25:40;10.90;;;7.25;;
80334;SDS011;69653;52.674;13.574;2023-05-07T04:28:06;11.82;;;7.40;;
80334;SDS011;69653;52.674;13.574;2023-05-07T04:30:31;12.73;;;7.20;;
80334;SDS011;69653;52.674;13.574;2023-05-07T04:32:57;13.33;;;7.53;;
80334;SDS011;69653;52.674;13.574;2023-05-07T04:35:22;9.70;;;6.67;;
80334;SDS011;69653;52.674;13.574;2023-05-07T04:37:47;11.53;;;6.00;;
80334;SDS011;69653;52.674;13.574;2023-05-07T04:40:13;10.63;;;7.27;;
80334;SDS011;69653;52.674;13.574;2023-05-07T04:42:38;11.00;;;6.93;;
80334;SDS011;69653;52.674;13.574;2023-05-07T04:45:04;9.65;;;6.38;;
80334;SDS011;69653;52.674;13.574;2023-05-07T04:47:30;12.00;;;7.22;;
80334;SDS011;69653;52.674;13.574;2023-05-07T04:49:55;10.97;;;6.57;;
80334;SDS011;69653;52.674;13.574;2023-05-07T04:52:20;10.47;;;6.60;;
80334;SDS011;69653;52.674;13.574;2023-05-07T04:54:46;11.60;;;6.93;;
80334;SDS011;69653;52.674;13.574;2023-05-07T04:57:11;10.07;;;6.23;;
80334;SDS011;69653;52.674;13.574;2023-05-07T04:59:36;12.07;;;6.55;;
80334;SDS011;69653;52.674;13.574;2023-05-07T05:02:02;11.23;;;6.57;;
80334;SDS011;69653;52.674;13.574;2023-05-07T05:04:29;11.35;;;6.63;;
80334;SDS011;69653;52.674;13.574;2023-05-07T05:06:54;9.57;;;5.80;;
80334;SDS011;69653;52.674;13.574;2023-05-07T05:09:20;11.83;;;6.53;;
80334;SDS011;69653;52.674;13.574;2023-05-07T05:11:45;10.97;;;7.20;;
80334;SDS011;69653;52.674;13.574;2023-05-07T05:14:10;10.63;;;6.30;;
80334;SDS011;69653;52.674;13.574;2023-05-07T05:16:35;9.60;;;5.67;;
80334;SDS011;69653;52.674;13.574;2023-05-07T05:19:01;10.50;;;6.87;;
80334;SDS011;69653;52.674;13.574;2023-05-07T05:21:27;13.10;;;6.20;;
80334;SDS011;69653;52.674;13.574;2023-05-07T05:23:52;9.90;;;6.28;;
80334;SDS011;69653;52.674;13.574;2023-05-07T05:26:18;9.50;;;6.60;;
80334;SDS011;69653;52.674;13.574;2023-05-07T05:28:43;10.32;;;6.10;;
80334;SDS011;69653;52.674;13.574;2023-05-07T05:31:09;13.02;;;6.53;;
80334;SDS011;69653;52.674;13.574;2023-05-07T05:33:35;8.63;;;5.67;;
80334;SDS011;69653;52.674;13.574;2023-05-07T05:36:00;11.77;;;6.50;;
80334;SDS011;69653;52.674;13.574;2023-05-07T05:38:26;9.23;;;6.00;;
80334;SDS011;69653;52.674;13.574;2023-05-07T05:40:51;10.02;;;6.15;;
80334;SDS011;69653;52.674;13.574;2023-05-07T05:43:16;10.13;;;5.60;;
80334;SDS011;69653;52.674;13.574;2023-05-07T05:45:41;10.07;;;5.67;;
80334;SDS011;69653;52.674;13.574;2023-05-07T05:48:07;8.63;;;5.30;;
80334;SDS011;69653;52.674;13.574;2023-05-07T05:50:33;8.82;;;5.22;;
80334;SDS011;69653;52.674;13.574;2023-05-07T05:53:00;8.98;;;5.50;;
80334;SDS011;69653;52.674;13.574;2023-05-07T05:55:26;7.82;;;5.38;;
80334;SDS011;69653;52.674;13.574;2023-05-07T05:57:51;8.45;;;5.38;;
80334;SDS011;69653;52.674;13.574;2023-05-07T06:00:17;9.80;;;5.75;;
80334;SDS011;69653;52.674;13.574;2023-05-07T06:02:42;8.75;;;5.18;;
80334;SDS011;69653;52.674;13.574;2023-05-07T06:05:08;10.10;;;5.43;;
80334;SDS011;69653;52.674;13.574;2023-05-07T06:07:33;9.85;;;5.95;;
80334;SDS011;69653;52.674;13.574;2023-05-07T06:09:59;9.05;;;5.00;;
80334;SDS011;69653;52.674;13.574;2023-05-07T06:12:25;9.27;;;5.00;;
80334;SDS011;69653;52.674;13.574;2023-05-07T06:14:50;9.10;;;5.20;;
80334;SDS011;69653;52.674;13.574;2023-05-07T06:17:16;7.85;;;4.55;;
80334;SDS011;69653;52.674;13.574;2023-05-07T06:19:41;8.13;;;5.77;;
80334;SDS011;69653;52.674;13.574;2023-05-07T06:22:06;7.50;;;4.80;;
80334;SDS011;69653;52.674;13.574;2023-05-07T06:24:32;6.97;;;4.70;;
80334;SDS011;69653;52.674;13.574;2023-05-07T06:26:57;7.63;;;4.70;;
80334;SDS011;69653;52.674;13.574;2023-05-07T06:29:23;7.07;;;4.60;;
80334;SDS011;69653;52.674;13.574;2023-05-07T06:31:50;8.48;;;5.05;;
80334;SDS011;69653;52.674;13.574;2023-05-07T06:34:17;7.93;;;5.00;;
80334;SDS011;69653;52.674;13.574;2023-05-07T06:36:42;9.70;;;4.33;;
80334;SDS011;69653;52.674;13.574;2023-05-07T06:39:07;12.47;;;5.20;;
80334;SDS011;69653;52.674;13.574;2023-05-07T06:41:33;10.20;;;5.33;;
80334;SDS011;69653;52.674;13.574;2023-05-07T06:43:59;9.60;;;5.47;;
80334;SDS011;69653;52.674;13.574;2023-05-07T06:46:24;6.50;;;4.63;;
80334;SDS011;69653;52.674;13.574;2023-05-07T06:48:50;8.55;;;5.75;;
80334;SDS011;69653;52.674;13.574;2023-05-07T06:51:15;8.40;;;5.37;;
80334;SDS011;69653;52.674;13.574;2023-05-07T06:53:41;7.90;;;4.80;;
80334;SDS011;69653;52.674;13.574;2023-05-07T06:56:06;6.63;;;4.37;;
80334;SDS011;69653;52.674;13.574;2023-05-07T06:58:31;8.60;;;4.87;;
80334;SDS011;69653;52.674;13.574;2023-05-07T07:00:57;7.60;;;4.57;;
80334;SDS011;69653;52.674;13.574;2023-05-07T07:03:22;6.67;;;3.93;;
80334;SDS011;69653;52.674;13.574;2023-05-07T07:05:50;5.97;;;4.17;;
80334;SDS011;69653;52.674;13.574;2023-05-07T07:08:16;6.10;;;3.65;;
80334;SDS011;69653;52.674;13.574;2023-05-07T07:10:42;6.40;;;3.80;;
80334;SDS011;69653;52.674;13.574;2023-05-07T07:13:08;7.23;;;3.83;;
80334;SDS011;69653;52.674;13.574;2023-05-07T07:15:33;7.30;;;4.00;;
80334;SDS011;69653;52.674;13.574;2023-05-07T07:17:58;7.77;;;4.20;;
80334;SDS011;69653;52.674;13.574;2023-05-07T07:20:24;5.93;;;3.30;;
80334;SDS011;69653;52.674;13.574;2023-05-07T07:22:49;4.83;;;3.17;;
80334;SDS011;69653;52.674;13.574;2023-05-07T07:25:14;5.70;;;2.80;;
80334;SDS011;69653;52.674;13.574;2023-05-07T07:27:40;5.30;;;2.75;;
80334;SDS011;69653;52.674;13.574;2023-05-07T07:30:05;5.77;;;3.10;;
80334;SDS011;69653;52.674;13.574;2023-05-07T07:32:31;6.00;;;3.10;;
80334;SDS011;69653;52.674;13.574;2023-05-07T07:34:58;6.38;;;3.00;;
80334;SDS011;69653;52.674;13.574;2023-05-07T07:37:23;7.05;;;3.35;;
80334;SDS011;69653;52.674;13.574;2023-05-07T07:39:50;5.95;;;3.35;;
80334;SDS011;69653;52.674;13.574;2023-05-07T07:42:15;6.23;;;2.77;;
80334;SDS011;69653;52.674;13.574;2023-05-07T07:44:41;5.63;;;3.07;;
80334;SDS011;69653;52.674;13.574;2023-05-07T07:47:06;4.90;;;2.30;;
80334;SDS011;69653;52.674;13.574;2023-05-07T07:49:31;4.63;;;2.43;;
80334;SDS011;69653;52.674;13.574;2023-05-07T07:51:57;4.67;;;2.53;;
80334;SDS011;69653;52.674;13.574;2023-05-07T07:54:24;5.13;;;2.75;;
80334;SDS011;69653;52.674;13.574;2023-05-07T07:56:50;5.30;;;2.67;;
80334;SDS011;69653;52.674;13.574;2023-05-07T07:59:15;6.47;;;2.40;;
80334;SDS011;69653;52.674;13.574;2023-05-07T08:01:43;6.30;;;2.55;;
80334;SDS011;69653;52.674;13.574;2023-05-07T08:04:09;5.38;;;2.58;;
80334;SDS011;69653;52.674;13.574;2023-05-07T08:06:34;5.27;;;3.10;;
80334;SDS011;69653;52.674;13.574;2023-05-07T08:09:00;5.10;;;2.70;;
80334;SDS011;69653;52.674;13.574;2023-05-07T08:11:25;4.33;;;2.50;;
80334;SDS011;69653;52.674;13.574;2023-05-07T08:13:51;5.65;;;3.05;;
80334;SDS011;69653;52.674;13.574;2023-05-07T08:16:16;5.53;;;2.60;;
80334;SDS011;69653;52.674;13.574;2023-05-07T08:18:42;5.35;;;2.55;;
80334;SDS011;69653;52.674;13.574;2023-05-07T08:21:07;5.90;;;2.50;;
80334;SDS011;69653;52.674;13.574;2023-05-07T08:23:33;5.40;;;2.55;;
80334;SDS011;69653;52.674;13.574;2023-05-07T08:25:59;4.50;;;2.17;;
80334;SDS011;69653;52.674;13.574;2023-05-07T08:28:25;6.05;;;2.92;;
80334;SDS011;69653;52.674;13.574;2023-05-07T08:30:50;5.43;;;3.38;;
80334;SDS011;69653;52.674;13.574;2023-05-07T08:33:16;6.30;;;2.80;;
80334;SDS011;69653;52.674;13.574;2023-05-07T08:35:41;4.88;;;2.40;;
80334;SDS011;69653;52.674;13.574;2023-05-07T08:38:06;5.03;;;2.37;;
80334;SDS011;69653;52.674;13.574;2023-05-07T08:40:33;5.97;;;2.60;;
80334;SDS011;69653;52.674;13.574;2023-05-07T08:43:02;5.43;;;2.85;;
80334;SDS011;69653;52.674;13.574;2023-05-07T08:45:30;5.07;;;2.50;;
80334;SDS011;69653;52.674;13.574;2023-05-07T08:47:59;4.93;;;2.92;;
80334;SDS011;69653;52.674;13.574;2023-05-07T08:50:26;5.32;;;2.35;;
80334;SDS011;69653;52.674;13.574;2023-05-07T08:52:52;6.55;;;3.00;;
80334;SDS011;69653;52.674;13.574;2023-05-07T08:55:17;4.88;;;2.25;;
80334;SDS011;69653;52.674;13.574;2023-05-07T08:57:43;5.30;;;2.58;;
80334;SDS011;69653;52.674;13.574;2023-05-07T09:00:09;5.78;;;2.28;;
80334;SDS011;69653;52.674;13.574;2023-05-07T09:02:35;6.18;;;2.30;;
80334;SDS011;69653;52.674;13.574;2023-05-07T09:05:01;5.18;;;2.33;;
80334;SDS011;69653;52.674;13.574;2023-05-07T09:07:26;5.18;;;2.15;;
80334;SDS011;69653;52.674;13.574;2023-05-07T09:09:52;5.77;;;2.30;;
80334;SDS011;69653;52.674;13.574;2023-05-07T09:12:18;4.93;;;2.20;;
80334;SDS011;69653;52.674;13.574;2023-05-07T09:14:43;4.63;;;2.40;;
80334;SDS011;69653;52.674;13.574;2023-05-07T09:17:09;5.20;;;2.85;;
80334;SDS011;69653;52.674;13.574;2023-05-07T09:19:35;5.17;;;2.70;;
80334;SDS011;69653;52.674;13.574;2023-05-07T09:22:01;4.53;;;2.33;;
80334;SDS011;69653;52.674;13.574;2023-05-07T09:24:27;5.07;;;2.10;;
80334;SDS011;69653;52.674;13.574;2023-05-07T09:26:57;4.72;;;2.20;;
80334;SDS011;69653;52.674;13.574;2023-05-07T09:29:22;5.38;;;2.28;;
80334;SDS011;69653;52.674;13.574;2023-05-07T09:31:48;5.57;;;2.23;;
80334;SDS011;69653;52.674;13.574;2023-05-07T09:34:13;5.77;;;2.50;;
80334;SDS011;69653;52.674;13.574;2023-05-07T09:36:38;4.83;;;2.03;;
80334;SDS011;69653;52.674;13.574;2023-05-07T09:39:03;4.60;;;2.13;;
80334;SDS011;69653;52.674;13.574;2023-05-07T09:41:29;3.57;;;1.80;;
80334;SDS011;69653;52.674;13.574;2023-05-07T09:43:57;4.45;;;2.10;;
80334;SDS011;69653;52.674;13.574;2023-05-07T09:46:27;4.57;;;2.17;;
80334;SDS011;69653;52.674;13.574;2023-05-07T09:48:56;5.25;;;2.20;;
80334;SDS011;69653;52.674;13.574;2023-05-07T09:51:28;4.95;;;1.98;;
80334;SDS011;69653;52.674;13.574;2023-05-07T09:53:56;4.22;;;2.05;;
80334;SDS011;69653;52.674;13.574;2023-05-07T09:56:22;4.28;;;2.03;;
80334;SDS011;69653;52.674;13.574;2023-05-07T09:58:47;4.90;;;1.95;;
80334;SDS011;69653;52.674;13.574;2023-05-07T10:01:15;4.60;;;2.03;;
80334;SDS011;69653;52.674;13.574;2023-05-07T10:03:42;5.18;;;2.50;;
80334;SDS011;69653;52.674;13.574;2023-05-07T10:06:09;3.97;;;2.15;;
80334;SDS011;69653;52.674;13.574;2023-05-07T10:08:35;5.10;;;2.20;;
80334;SDS011;69653;52.674;13.574;2023-05-07T10:11:05;3.90;;;2.42;;
80334;SDS011;69653;52.674;13.574;2023-05-07T10:13:31;3.90;;;1.80;;
80334;SDS011;69653;52.674;13.574;2023-05-07T10:15:59;4.20;;;1.95;;
80334;SDS011;69653;52.674;13.574;2023-05-07T10:18:25;3.35;;;1.63;;
80334;SDS011;69653;52.674;13.574;2023-05-07T10:20:54;3.63;;;1.70;;
80334;SDS011;69653;52.674;13.574;2023-05-07T10:23:33;4.80;;;1.92;;
80334;SDS011;69653;52.674;13.574;2023-05-07T10:25:59;4.53;;;2.03;;
80334;SDS011;69653;52.674;13.574;2023-05-07T10:28:30;5.63;;;2.13;;
80334;SDS011;69653;52.674;13.574;2023-05-07T10:34:07;3.30;;;1.55;;
80334;SDS011;69653;52.674;13.574;2023-05-07T10:36:36;4.22;;;1.73;;
80334;SDS011;69653;52.674;13.574;2023-05-07T10:39:02;3.33;;;1.80;;
80334;SDS011;69653;52.674;13.574;2023-05-07T10:41:28;4.78;;;2.30;;
80334;SDS011;69653;52.674;13.574;2023-05-07T10:43:53;4.72;;;2.03;;
80334;SDS011;69653;52.674;13.574;2023-05-07T10:46:19;3.80;;;1.80;;
80334;SDS011;69653;52.674;13.574;2023-05-07T10:51:31;3.50;;;1.63;;
80334;SDS011;69653;52.674;13.574;2023-05-07T10:56:35;4.10;;;1.67;;
80334;SDS011;69653;52.674;13.574;2023-05-07T11:01:59;4.18;;;1.58;;
80334;SDS011;69653;52.674;13.574;2023-05-07T11:04:28;4.35;;;1.70;;
80334;SDS011;69653;52.674;13.574;2023-05-07T11:15:01;4.20;;;1.80;;
80334;SDS011;69653;52.674;13.574;2023-05-07T11:17:29;4.25;;;1.92;;
80334;SDS011;69653;52.674;13.574;2023-05-07T11:19:56;4.35;;;2.20;;
80334;SDS011;69653;52.674;13.574;2023-05-07T11:25:04;3.72;;;1.42;;
80334;SDS011;69653;52.674;13.574;2023-05-07T11:27:31;4.00;;;1.50;;
80334;SDS011;69653;52.674;13.574;2023-05-07T11:29:57;3.80;;;1.52;;
80334;SDS011;69653;52.674;13.574;2023-05-07T11:32:22;3.83;;;1.52;;
80334;SDS011;69653;52.674;13.574;2023-05-07T11:34:51;3.60;;;1.35;;
80334;SDS011;69653;52.674;13.574;2023-05-07T11:37:17;5.75;;;1.55;;
80334;SDS011;69653;52.674;13.574;2023-05-07T11:39:43;4.18;;;1.55;;
80334;SDS011;69653;52.674;13.574;2023-05-07T11:44:52;5.00;;;2.00;;
80334;SDS011;69653;52.674;13.574;2023-05-07T11:47:18;5.03;;;1.30;;
80334;SDS011;69653;52.674;13.574;2023-05-07T11:49:45;3.30;;;1.40;;
80334;SDS011;69653;52.674;13.574;2023-05-07T11:52:12;3.88;;;1.52;;
80334;SDS011;69653;52.674;13.574;2023-05-07T11:54:38;4.10;;;1.60;;
80334;SDS011;69653;52.674;13.574;2023-05-07T11:57:03;4.53;;;1.70;;
80334;SDS011;69653;52.674;13.574;2023-05-07T11:59:29;4.45;;;1.45;;
80334;SDS011;69653;52.674;13.574;2023-05-07T12:01:57;5.50;;;1.83;;
80334;SDS011;69653;52.674;13.574;2023-05-07T12:04:24;3.20;;;1.48;;
80334;SDS011;69653;52.674;13.574;2023-05-07T12:06:53;3.28;;;1.38;;
80334;SDS011;69653;52.674;13.574;2023-05-07T12:09:19;3.75;;;1.70;;
80334;SDS011;69653;52.674;13.574;2023-05-07T12:11:45;4.03;;;1.53;;
80334;SDS011;69653;52.674;13.574;2023-05-07T12:14:11;4.30;;;1.58;;
80334;SDS011;69653;52.674;13.574;2023-05-07T12:16:36;3.90;;;1.50;;
80334;SDS011;69653;52.674;13.574;2023-05-07T12:19:04;3.40;;;1.63;;
80334;SDS011;69653;52.674;13.574;2023-05-07T12:21:31;3.45;;;1.98;;
80334;SDS011;69653;52.674;13.574;2023-05-07T12:23:56;4.07;;;1.50;;
80334;SDS011;69653;52.674;13.574;2023-05-07T12:26:22;5.75;;;1.85;;
80334;SDS011;69653;52.674;13.574;2023-05-07T12:28:47;4.67;;;1.37;;
80334;SDS011;69653;52.674;13.574;2023-05-07T12:31:13;3.37;;;1.50;;
80334;SDS011;69653;52.674;13.574;2023-05-07T12:33:39;3.25;;;1.65;;
80334;SDS011;69653;52.674;13.574;2023-05-07T12:36:05;5.65;;;1.92;;
80334;SDS011;69653;52.674;13.574;2023-05-07T12:38:35;3.47;;;1.70;;
80334;SDS011;69653;52.674;13.574;2023-05-07T12:41:02;4.65;;;1.77;;
80334;SDS011;69653;52.674;13.574;2023-05-07T12:43:27;5.10;;;2.33;;
80334;SDS011;69653;52.674;13.574;2023-05-07T12:45:54;3.85;;;1.40;;
80334;SDS011;69653;52.674;13.574;2023-05-07T12:48:23;3.78;;;1.63;;
80334;SDS011;69653;52.674;13.574;2023-05-07T12:50:51;3.58;;;1.65;;
80334;SDS011;69653;52.674;13.574;2023-05-07T12:53:19;4.80;;;1.90;;
80334;SDS011;69653;52.674;13.574;2023-05-07T12:55:47;3.58;;;1.63;;
80334;SDS011;69653;52.674;13.574;2023-05-07T12:58:15;4.20;;;1.70;;
80334;SDS011;69653;52.674;13.574;2023-05-07T13:00:45;2.95;;;1.42;;
80334;SDS011;69653;52.674;13.574;2023-05-07T13:03:20;3.72;;;1.40;;
80334;SDS011;69653;52.674;13.574;2023-05-07T13:05:48;5.15;;;1.63;;
80334;SDS011;69653;52.674;13.574;2023-05-07T13:08:22;3.80;;;1.73;;
80334;SDS011;69653;52.674;13.574;2023-05-07T13:10:52;3.50;;;1.70;;
80334;SDS011;69653;52.674;13.574;2023-05-07T13:13:18;5.32;;;1.65;;
80334;SDS011;69653;52.674;13.574;2023-05-07T13:15:44;3.53;;;1.45;;
80334;SDS011;69653;52.674;13.574;2023-05-07T13:18:09;3.83;;;1.60;;
80334;SDS011;69653;52.674;13.574;2023-05-07T13:20:36;3.97;;;1.55;;
80334;SDS011;69653;52.674;13.574;2023-05-07T13:23:01;3.90;;;1.70;;
80334;SDS011;69653;52.674;13.574;2023-05-07T13:25:29;4.40;;;1.80;;
80334;SDS011;69653;52.674;13.574;2023-05-07T13:27:56;4.78;;;1.70;;
80334;SDS011;69653;52.674;13.574;2023-05-07T13:30:21;3.42;;;2.05;;
80334;SDS011;69653;52.674;13.574;2023-05-07T13:32:47;4.23;;;1.70;;
80334;SDS011;69653;52.674;13.574;2023-05-07T13:35:12;3.45;;;1.73;;
80334;SDS011;69653;52.674;13.574;2023-05-07T13:37:38;5.10;;;1.90;;
80334;SDS011;69653;52.674;13.574;2023-05-07T13:40:03;5.17;;;1.70;;
80334;SDS011;69653;52.674;13.574;2023-05-07T13:42:29;3.85;;;1.92;;
80334;SDS011;69653;52.674;13.574;2023-05-07T13:44:56;4.93;;;1.77;;
80334;SDS011;69653;52.674;13.574;2023-05-07T13:47:22;5.68;;;1.85;;
80334;SDS011;69653;52.674;13.574;2023-05-07T13:49:47;3.83;;;1.73;;
80334;SDS011;69653;52.674;13.574;2023-05-07T13:52:15;4.63;;;2.00;;
80334;SDS011;69653;52.674;13.574;2023-05-07T13:54:41;4.32;;;1.70;;
80334;SDS011;69653;52.674;13.574;2023-05-07T13:57:06;4.63;;;2.10;;
80334;SDS011;69653;52.674;13.574;2023-05-07T13:59:31;4.33;;;1.70;;
80334;SDS011;69653;52.674;13.574;2023-05-07T14:01:56;3.73;;;1.73;;
80334;SDS011;69653;52.674;13.574;2023-05-07T14:04:22;4.73;;;1.60;;
80334;SDS011;69653;52.674;13.574;2023-05-07T14:06:47;5.80;;;1.60;;
80334;SDS011;69653;52.674;13.574;2023-05-07T14:09:12;4.20;;;1.67;;
80334;SDS011;69653;52.674;13.574;2023-05-07T14:11:38;3.28;;;1.70;;
80334;SDS011;69653;52.674;13.574;2023-05-07T14:14:04;3.38;;;1.23;;
80334;SDS011;69653;52.674;13.574;2023-05-07T14:16:29;2.80;;;1.23;;
80334;SDS011;69653;52.674;13.574;2023-05-07T14:18:55;4.18;;;1.38;;
80334;SDS011;69653;52.674;13.574;2023-05-07T14:21:20;6.20;;;1.57;;
80334;SDS011;69653;52.674;13.574;2023-05-07T14:23:46;3.97;;;1.50;;
80334;SDS011;69653;52.674;13.574;2023-05-07T14:26:12;3.78;;;1.35;;
80334;SDS011;69653;52.674;13.574;2023-05-07T14:28:37;3.40;;;1.30;;
80334;SDS011;69653;52.674;13.574;2023-05-07T14:31:04;3.05;;;1.35;;
80334;SDS011;69653;52.674;13.574;2023-05-07T14:33:30;4.75;;;1.40;;
80334;SDS011;69653;52.674;13.574;2023-05-07T14:35:55;3.53;;;1.50;;
80334;SDS011;69653;52.674;13.574;2023-05-07T14:38:20;3.20;;;1.47;;
80334;SDS011;69653;52.674;13.574;2023-05-07T14:40:46;7.07;;;1.60;;
80334;SDS011;69653;52.674;13.574;2023-05-07T14:43:11;3.85;;;1.38;;
80334;SDS011;69653;52.674;13.574;2023-05-07T14:45:36;4.87;;;1.40;;
80334;SDS011;69653;52.674;13.574;2023-05-07T14:48:02;2.77;;;1.30;;